Portada
METAR-TAF:

METAR-TAF

Aeropuertos :

Aeropuerto Internacional de Maiquetía Simón Bolívar

Caracas, Venezuela

latitud: 10-36N, longitud: 066-59W, altitud: 43 m

Observación

El informe se hizo hace 56 minutos, a las 02:00 UTC
Viento 3 kt del este
Temperatura 26°C
Humedad 84%
Presión 1007 hPa
Visibilidad 10 km o más
Nubes dispersas a una altura de 1600 ft

METAR: SVMI 210200Z 09003KT 9999 SCT016 26/23 Q1007

Hora: 22:56 (02:56 UTC)

Pronóstico

El informe se hizo hace 4 horas y 56 minutos, a las 22:00 UTC
Pronóstico válido del 21 a las 00 UTC al 22 a las 00 UTC
Viento 1 kt del este
Visibilidad 10 km o más
Nubes dispersas a una altura de 1600 ft
Evolucionando progresivamente
del 21 a las 02 UTC al 21 a las 07 UTC
Viento kt del norte
Visibilidad: 9000 m
Escasas nubes a una altura de 1600 ft
Nubes dispersas a una altura de 7000 ft
llovizna ligera

TAF: SVMI 202200Z 2100/2200 09001KT 9999 SCT016 TX33/19Z TN25/09Z BECMG 2102/2107 00000KT 9000 -DZ FEW016 SCT070

Observaciones y pronósticos meteorológicos de más de 4000 aeropuertos (mensajes METAR y TAF).

Los puntos amarillos y rojos representan las estaciones disponibles.

Ponga el ratón en el punto deseado para ver el nombre de la estación.

Haga clic para ver las observaciones y los pronósticos meteorológicos.

Para cambiar el mapa : haga clic en los botones verdes con una cruz de color negro para hacer un zoom, en el botón verde con un guión para alejar o en las flechas verdes para mapas adyacentes.


METAR-TAF: